createdAt,value
2022-07-25T00:00:11.591Z,24.20
2022-07-25T00:02:38.363Z,24.20
2022-07-25T00:05:05.197Z,24.20
2022-07-25T00:07:31.909Z,24.10
2022-07-25T00:09:58.546Z,24.10
2022-07-25T00:12:25.324Z,24.10
2022-07-25T00:14:52.029Z,24.00
2022-07-25T00:17:18.800Z,24.00
2022-07-25T00:19:45.598Z,24.00
2022-07-25T00:22:12.197Z,24.00
2022-07-25T00:24:38.831Z,24.00
2022-07-25T00:27:05.615Z,24.00
2022-07-25T00:29:32.403Z,24.00
2022-07-25T00:31:59.202Z,24.00
2022-07-25T00:34:25.792Z,23.90
2022-07-25T00:36:52.609Z,23.90
2022-07-25T00:39:19.195Z,23.90
2022-07-25T00:41:45.844Z,23.90
2022-07-25T00:44:25.656Z,23.90
2022-07-25T00:46:52.472Z,23.90
2022-07-25T00:49:19.225Z,23.80
2022-07-25T00:51:46.263Z,23.80
2022-07-25T00:54:12.949Z,23.80
2022-07-25T00:56:40.104Z,23.80
2022-07-25T00:59:06.883Z,23.70
2022-07-25T01:01:34.846Z,23.70
2022-07-25T01:04:01.717Z,23.70
2022-07-25T01:06:28.649Z,23.60
2022-07-25T01:08:55.288Z,23.60
2022-07-25T01:11:22.146Z,23.60
2022-07-25T01:13:48.813Z,23.60
2022-07-25T01:16:15.511Z,23.50
2022-07-25T01:18:42.124Z,23.50
2022-07-25T01:21:09.109Z,23.50
2022-07-25T01:23:35.878Z,23.50
2022-07-25T01:26:02.795Z,23.40
2022-07-25T01:28:29.395Z,23.50
2022-07-25T01:30:56.257Z,23.40
2022-07-25T01:33:22.934Z,23.40
2022-07-25T01:35:50.035Z,23.40
2022-07-25T01:38:17.039Z,23.40
2022-07-25T01:40:44.241Z,23.40
2022-07-25T01:43:11.193Z,23.40
2022-07-25T01:45:37.936Z,23.40
2022-07-25T01:48:04.541Z,23.50
2022-07-25T01:50:31.329Z,23.50
2022-07-25T01:52:57.895Z,23.50
2022-07-25T01:55:24.550Z,23.50
2022-07-25T01:57:51.950Z,23.40
2022-07-25T02:00:19.148Z,23.50
2022-07-25T02:02:46.558Z,23.50
2022-07-25T02:05:13.749Z,23.50
2022-07-25T02:07:40.529Z,23.50
2022-07-25T02:10:07.648Z,23.40
2022-07-25T02:12:34.323Z,23.40
2022-07-25T02:15:01.227Z,23.50
2022-07-25T02:17:27.865Z,23.60
2022-07-25T02:19:54.460Z,23.60
2022-07-25T02:22:21.029Z,23.50
2022-07-25T02:24:47.582Z,23.50
2022-07-25T02:27:14.305Z,23.50
2022-07-25T02:29:41.049Z,23.50
2022-07-25T02:32:07.627Z,23.40
2022-07-25T02:34:34.347Z,23.40
2022-07-25T02:37:00.964Z,23.30
2022-07-25T02:39:27.628Z,23.40
2022-07-25T02:41:54.197Z,23.30
2022-07-25T02:44:20.929Z,23.30
2022-07-25T02:46:47.503Z,23.20
2022-07-25T02:49:14.112Z,23.20
2022-07-25T02:51:40.716Z,23.20
2022-07-25T02:54:07.318Z,23.20
2022-07-25T02:56:33.884Z,23.10
2022-07-25T02:59:00.551Z,23.10
2022-07-25T03:01:27.143Z,23.10
2022-07-25T03:03:53.854Z,23.00
2022-07-25T03:06:20.457Z,23.00
2022-07-25T03:08:46.980Z,23.00
2022-07-25T03:11:14.144Z,23.00
2022-07-25T03:13:40.685Z,22.90
2022-07-25T03:16:07.780Z,22.90
2022-07-25T03:18:34.354Z,22.90
2022-07-25T03:21:00.923Z,22.90
2022-07-25T03:23:28.362Z,22.90
2022-07-25T03:25:55.557Z,22.80
2022-07-25T03:28:22.210Z,22.80
2022-07-25T03:30:48.766Z,22.90
2022-07-25T03:33:15.332Z,22.80
2022-07-25T03:35:41.934Z,22.80
2022-07-25T03:38:08.507Z,22.80
2022-07-25T03:40:36.433Z,22.70
2022-07-25T03:43:03.071Z,22.80
2022-07-25T03:45:29.690Z,22.80
2022-07-25T03:47:56.325Z,22.80
2022-07-25T03:50:22.919Z,22.80
2022-07-25T03:52:49.558Z,22.80
2022-07-25T03:55:16.135Z,22.80
2022-07-25T03:57:43.119Z,22.80
2022-07-25T04:00:10.574Z,22.80
2022-07-25T04:02:40.204Z,22.80
2022-07-25T04:05:07.276Z,22.80
2022-07-25T04:07:34.139Z,22.80
2022-07-25T04:10:00.708Z,22.80
2022-07-25T04:12:27.302Z,22.80
2022-07-25T04:14:53.990Z,22.80
2022-07-25T04:17:20.665Z,22.80
2022-07-25T04:19:48.176Z,22.80
2022-07-25T04:22:14.772Z,22.80
2022-07-25T04:24:41.380Z,22.80
2022-07-25T04:27:07.943Z,22.90
2022-07-25T04:29:34.511Z,22.90
2022-07-25T04:32:01.137Z,22.90
2022-07-25T04:34:27.784Z,22.90
2022-07-25T04:36:54.327Z,22.90
2022-07-25T04:39:20.887Z,22.90
2022-07-25T04:41:47.599Z,22.90
2022-07-25T04:44:14.153Z,22.90
2022-07-25T04:46:40.940Z,23.00
2022-07-25T04:49:08.174Z,23.00
2022-07-25T04:51:34.806Z,23.10
2022-07-25T04:54:01.381Z,23.10
2022-07-25T04:56:27.984Z,23.10
2022-07-25T04:58:54.532Z,23.20
2022-07-25T05:01:21.141Z,23.10
2022-07-25T05:03:49.962Z,23.20
2022-07-25T05:06:16.987Z,23.30
2022-07-25T05:08:43.679Z,23.30
2022-07-25T05:11:10.249Z,23.20
2022-07-25T05:13:36.825Z,23.10
2022-07-25T05:16:03.485Z,23.20
2022-07-25T05:18:30.074Z,23.20
2022-07-25T05:20:56.603Z,23.20
2022-07-25T05:23:23.164Z,23.20
2022-07-25T05:25:49.716Z,23.30
2022-07-25T05:28:17.728Z,23.20
2022-07-25T05:30:44.282Z,23.40
2022-07-25T05:33:10.857Z,23.40
2022-07-25T05:35:37.478Z,23.40
2022-07-25T05:38:04.883Z,23.50
2022-07-25T05:40:31.502Z,23.50
2022-07-25T05:43:02.750Z,23.50
2022-07-25T05:45:30.051Z,23.60
2022-07-25T05:47:56.596Z,23.50
2022-07-25T05:50:23.237Z,23.50
2022-07-25T05:52:50.000Z,23.50
2022-07-25T05:55:17.471Z,23.60
2022-07-25T05:57:44.085Z,23.70
2022-07-25T06:00:11.270Z,23.70
2022-07-25T06:02:38.178Z,23.70
2022-07-25T06:05:05.225Z,23.60
2022-07-25T06:07:31.939Z,23.70
2022-07-25T06:09:58.823Z,23.60
2022-07-25T06:12:25.435Z,23.70
2022-07-25T06:14:52.112Z,23.70
2022-07-25T06:17:18.767Z,23.70
2022-07-25T06:19:45.379Z,23.70
2022-07-25T06:22:12.555Z,23.60
2022-07-25T06:24:41.319Z,23.60
2022-07-25T06:27:08.420Z,23.80
2022-07-25T06:29:34.992Z,23.80
2022-07-25T06:32:01.743Z,23.80
2022-07-25T06:34:28.990Z,23.90
2022-07-25T06:36:57.346Z,23.90
2022-07-25T06:39:24.552Z,23.80
2022-07-25T06:41:51.246Z,23.90
2022-07-25T06:44:17.815Z,23.90
2022-07-25T06:46:44.429Z,24.00
2022-07-25T06:49:11.154Z,24.00
2022-07-25T06:51:38.871Z,24.00
2022-07-25T06:54:05.964Z,24.20
2022-07-25T06:56:33.217Z,24.20
2022-07-25T06:59:00.670Z,24.40
2022-07-25T07:01:27.611Z,24.30
2022-07-25T07:03:54.441Z,24.30
2022-07-25T07:06:21.024Z,24.30
2022-07-25T07:08:47.742Z,24.30
2022-07-25T07:11:15.388Z,24.40
2022-07-25T07:13:42.151Z,24.40
2022-07-25T07:16:08.956Z,24.50
2022-07-25T07:18:35.698Z,24.50
2022-07-25T07:21:02.793Z,24.50
2022-07-25T07:23:29.461Z,24.50
2022-07-25T07:25:56.574Z,24.40
2022-07-25T07:28:23.292Z,24.40
2022-07-25T07:31:15.232Z,24.50
2022-07-25T07:33:37.603Z,24.40
2022-07-25T07:36:04.331Z,24.40
2022-07-25T07:38:30.865Z,24.40
2022-07-25T07:40:57.444Z,24.40
2022-07-25T07:43:29.367Z,24.50
2022-07-25T07:45:59.272Z,24.60
2022-07-25T07:48:28.182Z,24.70
2022-07-25T07:50:54.892Z,24.60
2022-07-25T07:53:21.493Z,24.60
2022-07-25T07:55:55.286Z,24.60
2022-07-25T07:58:21.986Z,24.50
2022-07-25T08:00:49.746Z,24.60
2022-07-25T08:03:20.582Z,24.60
2022-07-25T08:05:48.775Z,24.50
2022-07-25T08:08:15.780Z,24.50
2022-07-25T08:10:43.880Z,24.40
2022-07-25T08:13:15.218Z,24.50
2022-07-25T08:15:42.795Z,24.60
2022-07-25T08:18:17.477Z,24.80
2022-07-25T08:20:45.732Z,24.90
2022-07-25T08:23:12.593Z,24.90
2022-07-25T08:25:39.745Z,25.00
2022-07-25T08:28:06.610Z,24.90
2022-07-25T08:30:34.244Z,24.90
2022-07-25T08:33:05.013Z,24.90
2022-07-25T08:35:32.203Z,24.70
2022-07-25T08:37:59.414Z,24.60
2022-07-25T08:40:27.095Z,24.40
2022-07-25T08:42:54.988Z,24.30
2022-07-25T08:45:22.222Z,24.30
2022-07-25T08:47:51.727Z,24.30
2022-07-25T08:50:19.904Z,24.20
2022-07-25T08:52:47.612Z,24.30
2022-07-25T08:55:16.758Z,24.50
2022-07-25T08:57:43.958Z,24.60
2022-07-25T09:00:14.343Z,24.60
2022-07-25T09:02:41.030Z,24.60
2022-07-25T09:05:07.847Z,24.70
2022-07-25T09:07:34.425Z,24.70
2022-07-25T09:10:18.097Z,24.70
2022-07-25T09:12:53.090Z,24.70
2022-07-25T09:15:25.580Z,24.70
2022-07-25T09:17:53.623Z,24.70
2022-07-25T09:20:21.511Z,24.80
2022-07-25T09:22:48.504Z,24.80
2022-07-25T09:25:25.450Z,24.80
2022-07-25T09:27:52.427Z,24.80
2022-07-25T09:30:19.340Z,24.80
2022-07-25T09:32:45.998Z,24.90
2022-07-25T09:35:13.184Z,24.80
2022-07-25T09:37:39.755Z,24.70
2022-07-25T09:40:14.587Z,24.70
2022-07-25T09:42:42.856Z,24.70
2022-07-25T09:45:13.903Z,24.70
2022-07-25T09:47:51.141Z,24.60
2022-07-25T09:50:18.452Z,24.60
2022-07-25T09:52:45.231Z,24.50
2022-07-25T09:55:14.008Z,24.70
2022-07-25T09:57:41.016Z,24.70
2022-07-25T10:00:08.332Z,24.90
2022-07-25T10:02:49.332Z,25.00
2022-07-25T10:05:19.111Z,25.20
2022-07-25T10:07:47.089Z,25.50
2022-07-25T10:10:27.310Z,25.70
2022-07-25T10:13:10.222Z,25.70
2022-07-25T10:15:41.052Z,25.70
2022-07-25T10:18:08.291Z,25.60
2022-07-25T10:20:35.608Z,25.50
2022-07-25T10:23:02.479Z,25.30
2022-07-25T10:25:29.080Z,25.40
2022-07-25T10:28:01.177Z,25.50
2022-07-25T10:30:29.227Z,25.40
2022-07-25T10:32:57.005Z,25.40
2022-07-25T10:35:23.690Z,25.50
2022-07-25T10:37:50.839Z,25.50
2022-07-25T10:40:26.188Z,25.50
2022-07-25T10:42:56.705Z,25.50
2022-07-25T10:45:25.984Z,25.60
2022-07-25T10:47:55.915Z,25.60
2022-07-25T10:50:40.412Z,25.50
2022-07-25T10:53:09.839Z,25.50
2022-07-25T10:55:37.098Z,25.50
2022-07-25T10:58:21.651Z,25.70
2022-07-25T11:00:48.238Z,25.70
2022-07-25T11:03:18.398Z,25.50
2022-07-25T11:05:46.546Z,25.40
2022-07-25T11:08:21.734Z,25.30
2022-07-25T11:10:52.572Z,25.20
2022-07-25T11:13:19.169Z,25.10
2022-07-25T11:15:46.583Z,25.00
2022-07-25T11:18:13.347Z,25.00
2022-07-25T11:20:39.937Z,25.10
2022-07-25T11:23:06.722Z,25.00
2022-07-25T11:25:33.277Z,25.00
2022-07-25T11:28:00.750Z,24.90
2022-07-25T11:30:29.079Z,25.10
2022-07-25T11:32:56.462Z,25.20
2022-07-25T11:35:24.769Z,25.10
2022-07-25T11:37:52.157Z,25.20
2022-07-25T11:40:20.268Z,25.40
2022-07-25T11:42:48.284Z,25.30
2022-07-25T11:45:22.437Z,25.00
2022-07-25T11:48:04.833Z,25.00
2022-07-25T11:50:32.178Z,25.20
2022-07-25T11:53:00.216Z,24.90
2022-07-25T11:55:31.305Z,24.90
2022-07-25T11:57:59.840Z,24.90
2022-07-25T12:00:26.577Z,24.80
2022-07-25T12:02:53.279Z,24.60
2022-07-25T12:05:21.037Z,24.40
2022-07-25T12:07:49.287Z,24.40
2022-07-25T12:10:16.517Z,24.30
2022-07-25T12:12:43.111Z,24.20
2022-07-25T12:15:16.058Z,24.10
2022-07-25T12:17:43.508Z,24.00
2022-07-25T12:20:14.574Z,24.00
2022-07-25T12:22:41.296Z,23.70
2022-07-25T12:25:08.180Z,23.70
2022-07-25T12:27:34.772Z,23.70
2022-07-25T12:30:01.360Z,23.60
2022-07-25T12:32:28.212Z,23.60
2022-07-25T12:34:54.780Z,23.60
2022-07-25T12:37:21.732Z,23.70
2022-07-25T12:39:48.594Z,23.80
2022-07-25T12:42:15.128Z,23.90
2022-07-25T12:44:41.667Z,24.10
2022-07-25T12:47:08.273Z,24.40
2022-07-25T12:49:34.808Z,24.30
2022-07-25T12:52:01.372Z,24.40
2022-07-25T12:54:27.948Z,24.60
2022-07-25T12:56:54.540Z,24.80
2022-07-25T12:59:21.530Z,25.10
2022-07-25T13:01:48.407Z,25.20
2022-07-25T13:04:15.096Z,25.40
2022-07-25T13:06:41.724Z,25.40
2022-07-25T13:09:08.486Z,25.40
2022-07-25T13:11:35.301Z,25.20
2022-07-25T13:14:01.852Z,25.30
2022-07-25T13:16:28.428Z,25.60
2022-07-25T13:18:55.022Z,25.70
2022-07-25T13:21:21.625Z,25.70
2022-07-25T13:23:48.157Z,25.90
2022-07-25T13:26:14.740Z,26.00
2022-07-25T13:28:41.299Z,26.00
2022-07-25T13:31:07.933Z,25.90
2022-07-25T13:33:34.632Z,26.10
2022-07-25T13:36:01.188Z,26.20
2022-07-25T13:38:27.742Z,26.10
2022-07-25T13:40:58.654Z,26.40
2022-07-25T13:43:25.555Z,26.40
2022-07-25T13:45:52.137Z,26.10
2022-07-25T13:48:29.372Z,26.20
2022-07-25T13:50:57.482Z,26.00
2022-07-25T13:53:29.435Z,26.50
2022-07-25T13:55:56.796Z,26.10
2022-07-25T13:58:23.571Z,26.20
2022-07-25T14:00:50.294Z,26.10
2022-07-25T14:03:16.913Z,26.20
2022-07-25T14:05:43.454Z,26.00
2022-07-25T14:08:10.001Z,26.20
2022-07-25T14:10:36.811Z,26.30
2022-07-25T14:13:03.852Z,26.20
2022-07-25T14:15:30.444Z,26.10
2022-07-25T14:17:57.428Z,26.10
2022-07-25T14:20:24.096Z,25.90
2022-07-25T14:22:50.660Z,25.80
2022-07-25T14:25:17.220Z,25.70
2022-07-25T14:27:45.071Z,25.60
2022-07-25T14:30:12.537Z,25.60
2022-07-25T14:32:39.109Z,25.80
2022-07-25T14:35:06.096Z,26.10
2022-07-25T14:37:33.354Z,26.30
2022-07-25T14:40:01.685Z,26.50
2022-07-25T14:42:28.363Z,26.20
2022-07-25T14:44:54.980Z,26.40
2022-07-25T14:47:21.754Z,26.30
2022-07-25T14:49:48.453Z,26.50
2022-07-25T14:52:15.641Z,26.70
2022-07-25T14:54:42.255Z,27.00
2022-07-25T14:57:09.771Z,27.30
2022-07-25T14:59:36.405Z,28.00
2022-07-25T15:02:03.793Z,28.10
2022-07-25T15:04:30.389Z,28.00
2022-07-25T15:06:56.990Z,27.70
2022-07-25T15:09:23.533Z,28.30
2022-07-25T15:11:50.234Z,28.80
2022-07-25T15:14:16.834Z,29.20
2022-07-25T15:16:43.701Z,28.90
2022-07-25T15:19:18.053Z,29.20
2022-07-25T15:21:45.282Z,29.40
2022-07-25T15:24:11.848Z,29.00
2022-07-25T15:26:38.522Z,29.10
2022-07-25T15:29:09.626Z,29.60
2022-07-25T15:31:36.972Z,29.80
2022-07-25T15:34:03.599Z,29.40
2022-07-25T15:36:30.220Z,28.00
2022-07-25T15:38:56.838Z,29.00
2022-07-25T15:41:23.448Z,29.20
2022-07-25T15:43:49.998Z,29.30
2022-07-25T15:46:16.935Z,29.20
2022-07-25T15:48:44.009Z,29.30
2022-07-25T15:51:10.881Z,29.10
2022-07-25T15:53:37.452Z,28.90
2022-07-25T15:56:04.444Z,29.20
2022-07-25T15:58:31.562Z,28.50
2022-07-25T16:00:58.264Z,28.00
2022-07-25T16:03:24.900Z,29.00
2022-07-25T16:05:51.579Z,28.60
2022-07-25T16:08:18.167Z,28.10
2022-07-25T16:10:44.715Z,27.80
2022-07-25T16:13:11.350Z,27.80
2022-07-25T16:15:38.481Z,28.70
2022-07-25T16:18:05.098Z,27.80
2022-07-25T16:20:32.293Z,28.80
2022-07-25T16:22:59.423Z,28.80
2022-07-25T16:25:27.340Z,29.10
2022-07-25T16:27:54.029Z,27.60
2022-07-25T16:30:21.473Z,28.20
2022-07-25T16:32:48.092Z,28.20
2022-07-25T16:35:14.771Z,28.80
2022-07-25T16:37:42.227Z,28.60
2022-07-25T16:40:09.181Z,28.80
2022-07-25T16:42:35.828Z,28.80
2022-07-25T16:45:02.443Z,29.00
2022-07-25T16:47:29.046Z,28.40
2022-07-25T16:49:55.615Z,28.50
2022-07-25T16:52:22.817Z,28.60
2022-07-25T16:54:49.672Z,28.80
2022-07-25T16:57:16.256Z,28.50
2022-07-25T16:59:42.883Z,28.10
2022-07-25T17:02:09.521Z,28.60
2022-07-25T17:04:36.274Z,28.30
2022-07-25T17:07:02.885Z,27.40
2022-07-25T17:09:29.472Z,26.70
2022-07-25T17:11:56.079Z,26.00
2022-07-25T17:14:27.726Z,27.20
2022-07-25T17:16:56.475Z,27.30
2022-07-25T17:19:23.078Z,26.70
2022-07-25T17:21:49.682Z,26.30
2022-07-25T17:24:19.089Z,26.40
2022-07-25T17:26:45.640Z,26.40
2022-07-25T17:29:13.635Z,26.00
2022-07-25T17:31:40.472Z,25.70
2022-07-25T17:34:07.146Z,25.40
2022-07-25T17:36:33.965Z,25.00
2022-07-25T17:39:00.872Z,24.80
2022-07-25T17:41:27.444Z,24.60
2022-07-25T17:43:54.017Z,24.40
2022-07-25T17:46:20.792Z,24.50
2022-07-25T17:48:47.525Z,24.10
2022-07-25T17:51:14.297Z,24.00
2022-07-25T17:53:40.924Z,23.90
2022-07-25T17:56:08.321Z,23.80
2022-07-25T17:58:35.052Z,23.40
2022-07-25T18:01:03.921Z,23.60
2022-07-25T18:03:32.598Z,23.60
2022-07-25T18:05:59.460Z,23.30
2022-07-25T18:08:26.224Z,23.30
2022-07-25T18:10:52.887Z,23.20
2022-07-25T18:13:19.584Z,23.00
2022-07-25T18:15:46.614Z,23.10
2022-07-25T18:18:16.992Z,23.00
2022-07-25T18:20:46.966Z,23.00
2022-07-25T18:23:13.859Z,22.90
2022-07-25T18:25:40.473Z,22.70
2022-07-25T18:28:07.535Z,22.70
2022-07-25T18:30:34.100Z,22.80
2022-07-25T18:33:00.692Z,22.80
2022-07-25T18:35:27.257Z,23.00
2022-07-25T18:37:53.884Z,22.90
2022-07-25T18:40:20.799Z,22.90
2022-07-25T18:42:47.520Z,22.70
2022-07-25T18:45:14.174Z,22.70
2022-07-25T18:47:40.921Z,22.70
2022-07-25T18:50:07.817Z,22.50
2022-07-25T18:52:35.040Z,22.50
2022-07-25T18:55:05.720Z,22.40
2022-07-25T18:57:33.015Z,22.40
2022-07-25T19:00:03.241Z,22.30
2022-07-25T19:02:30.239Z,22.30
2022-07-25T19:04:56.829Z,22.20
2022-07-25T19:07:23.574Z,22.30
2022-07-25T19:09:50.125Z,22.30
2022-07-25T19:12:16.736Z,22.20
2022-07-25T19:14:43.331Z,22.20
2022-07-25T19:17:09.905Z,22.20
2022-07-25T19:19:36.523Z,22.30
2022-07-25T19:22:03.141Z,22.30
2022-07-25T19:24:31.270Z,22.30
2022-07-25T19:26:58.833Z,22.30
2022-07-25T19:29:26.620Z,22.10
2022-07-25T19:31:53.279Z,22.20
2022-07-25T19:34:19.851Z,22.30
2022-07-25T19:36:46.444Z,22.30
2022-07-25T19:39:13.257Z,22.10
2022-07-25T19:41:44.690Z,22.00
2022-07-25T19:44:13.321Z,22.00
2022-07-25T19:46:40.054Z,22.10
2022-07-25T19:49:06.814Z,22.10
2022-07-25T19:51:33.458Z,22.00
2022-07-25T19:54:03.269Z,21.90
2022-07-25T19:56:30.584Z,22.00
2022-07-25T19:58:57.598Z,21.90
2022-07-25T20:01:24.222Z,21.90
2022-07-25T20:03:50.866Z,21.80
2022-07-25T20:06:20.411Z,21.70
2022-07-25T20:08:49.784Z,21.70
2022-07-25T20:11:16.400Z,21.80
2022-07-25T20:13:43.034Z,21.70
2022-07-25T20:16:09.978Z,21.70
2022-07-25T20:18:36.676Z,21.70
2022-07-25T20:21:03.504Z,21.70
2022-07-25T20:23:30.679Z,21.70
2022-07-25T20:25:57.293Z,21.60
2022-07-25T20:28:23.859Z,21.40
2022-07-25T20:30:50.791Z,21.60
2022-07-25T20:33:18.112Z,21.60
2022-07-25T20:35:45.104Z,21.40
2022-07-25T20:38:11.640Z,21.40
2022-07-25T20:40:43.923Z,21.40
2022-07-25T20:43:14.975Z,21.30
2022-07-25T20:45:41.615Z,21.30
2022-07-25T20:48:08.284Z,21.30
2022-07-25T20:50:36.140Z,21.40
2022-07-25T20:53:03.264Z,21.30
2022-07-25T20:55:31.414Z,21.20
2022-07-25T20:57:58.195Z,21.20
2022-07-25T21:00:27.338Z,21.20
2022-07-25T21:02:54.471Z,21.20
2022-07-25T21:05:21.539Z,21.10
2022-07-25T21:07:48.177Z,21.10
2022-07-25T21:10:15.244Z,21.00
2022-07-25T21:12:42.060Z,21.00
2022-07-25T21:15:09.337Z,21.10
2022-07-25T21:17:35.980Z,20.90
2022-07-25T21:20:03.501Z,20.90
2022-07-25T21:22:30.127Z,21.00
2022-07-25T21:24:56.806Z,21.00
2022-07-25T21:27:23.618Z,20.90
2022-07-25T21:29:50.404Z,20.80
2022-07-25T21:32:17.373Z,20.90
2022-07-25T21:34:47.254Z,20.80
2022-07-25T21:37:13.905Z,20.80
2022-07-25T21:39:40.598Z,20.80
2022-07-25T21:42:09.952Z,20.70
2022-07-25T21:44:38.289Z,20.70
2022-07-25T21:47:04.924Z,20.70
2022-07-25T21:49:50.312Z,20.80
2022-07-25T21:52:17.218Z,20.70
2022-07-25T21:54:44.795Z,20.60
2022-07-25T21:57:13.237Z,20.50
2022-07-25T21:59:40.964Z,20.50
2022-07-25T22:02:07.679Z,20.40
2022-07-25T22:04:34.435Z,20.50
2022-07-25T22:07:01.164Z,20.50
2022-07-25T22:09:27.916Z,20.40
2022-07-25T22:11:55.039Z,20.40
2022-07-25T22:14:21.704Z,20.40
2022-07-25T22:16:48.538Z,20.40
2022-07-25T22:19:15.149Z,20.30
2022-07-25T22:21:41.913Z,20.20
2022-07-25T22:24:08.953Z,20.30
2022-07-25T22:26:35.818Z,20.30
2022-07-25T22:29:02.505Z,20.30
2022-07-25T22:31:29.192Z,20.30
2022-07-25T22:33:55.932Z,20.30
2022-07-25T22:36:22.662Z,20.30
2022-07-25T22:38:50.294Z,20.10
2022-07-25T22:41:16.880Z,20.20
2022-07-25T22:43:56.603Z,20.20
2022-07-25T22:46:25.314Z,20.10
2022-07-25T22:48:52.014Z,20.10
2022-07-25T22:51:18.605Z,20.10
2022-07-25T22:53:45.248Z,20.20
2022-07-25T22:56:11.944Z,20.10
2022-07-25T22:58:38.612Z,20.10
2022-07-25T23:01:05.314Z,20.20
2022-07-25T23:03:33.396Z,20.30
2022-07-25T23:06:00.267Z,20.30
2022-07-25T23:08:27.106Z,20.30
2022-07-25T23:10:53.777Z,20.30
2022-07-25T23:13:20.533Z,20.40
2022-07-25T23:15:49.792Z,20.30
2022-07-25T23:18:18.636Z,20.40
2022-07-25T23:20:45.464Z,20.40
2022-07-25T23:23:12.213Z,20.30
2022-07-25T23:25:39.231Z,20.30
2022-07-25T23:28:05.880Z,20.40
2022-07-25T23:30:38.010Z,20.40
2022-07-25T23:33:06.739Z,20.40
2022-07-25T23:35:33.625Z,20.40
2022-07-25T23:38:00.265Z,20.40
2022-07-25T23:40:27.518Z,20.30
2022-07-25T23:42:54.544Z,20.40
2022-07-25T23:45:21.784Z,20.40
2022-07-25T23:47:51.611Z,20.40
2022-07-25T23:50:19.708Z,20.50
2022-07-25T23:52:46.356Z,20.40
2022-07-25T23:55:13.081Z,20.50
2022-07-25T23:57:39.743Z,20.40
